createdAt,value
2023-01-19T00:00:23.972Z,8.48
2023-01-19T00:02:55.365Z,9.98
2023-01-19T00:05:24.504Z,8.55
2023-01-19T00:07:53.531Z,10.40
2023-01-19T00:10:22.545Z,9.63
2023-01-19T00:12:52.382Z,8.55
2023-01-19T00:15:22.080Z,9.82
2023-01-19T00:17:51.485Z,10.02
2023-01-19T00:20:21.905Z,9.40
2023-01-19T00:22:51.231Z,10.30
2023-01-19T00:25:20.176Z,10.13
2023-01-19T00:27:49.562Z,7.78
2023-01-19T00:30:19.045Z,11.02
2023-01-19T00:32:48.107Z,9.57
2023-01-19T00:35:17.391Z,9.68
2023-01-19T00:37:47.815Z,9.20
2023-01-19T00:40:17.199Z,9.30
2023-01-19T00:42:45.577Z,8.40
2023-01-19T00:45:18.618Z,8.10
2023-01-19T00:47:48.541Z,9.70
2023-01-19T00:50:18.714Z,7.97
2023-01-19T00:52:49.105Z,7.20
2023-01-19T00:55:18.608Z,10.10
2023-01-19T00:57:47.706Z,7.35
2023-01-19T01:00:20.049Z,8.30
2023-01-19T01:02:54.802Z,9.82
2023-01-19T01:05:24.095Z,7.57
2023-01-19T01:07:54.536Z,8.00
2023-01-19T01:10:25.825Z,8.50
2023-01-19T01:12:57.727Z,7.18
2023-01-19T01:15:27.772Z,8.10
2023-01-19T01:17:56.765Z,9.80
2023-01-19T01:20:28.742Z,8.07
2023-01-19T01:22:59.727Z,9.43
2023-01-19T01:25:31.126Z,8.38
2023-01-19T01:28:00.250Z,7.22
2023-01-19T01:30:29.221Z,7.93
2023-01-19T01:32:58.573Z,7.95
2023-01-19T01:35:28.102Z,8.15
2023-01-19T01:38:01.945Z,9.10
2023-01-19T01:40:31.015Z,7.13
2023-01-19T01:43:00.263Z,7.68
2023-01-19T01:45:33.932Z,7.93
2023-01-19T01:48:07.572Z,7.75
2023-01-19T01:50:40.075Z,8.07
2023-01-19T01:53:15.575Z,8.50
2023-01-19T01:55:48.243Z,7.45
2023-01-19T01:58:17.738Z,8.27
2023-01-19T02:01:00.720Z,9.13
2023-01-19T02:03:32.581Z,7.70
2023-01-19T02:06:07.213Z,8.73
2023-01-19T02:09:00.927Z,8.23
2023-01-19T02:11:48.736Z,7.93
2023-01-19T02:14:19.096Z,7.40
2023-01-19T02:16:48.657Z,8.95
2023-01-19T02:19:23.252Z,9.30
2023-01-19T02:21:58.696Z,9.20
2023-01-19T02:24:29.548Z,10.30
2023-01-19T02:26:59.425Z,9.45
2023-01-19T02:29:29.642Z,8.88
2023-01-19T02:31:59.944Z,8.77
2023-01-19T02:34:29.716Z,10.90
2023-01-19T02:37:02.231Z,9.45
2023-01-19T02:39:38.927Z,9.60
2023-01-19T02:42:12.275Z,10.15
2023-01-19T02:44:45.023Z,9.30
2023-01-19T02:47:15.449Z,9.88
2023-01-19T02:49:44.709Z,9.77
2023-01-19T02:52:18.991Z,9.05
2023-01-19T02:54:58.161Z,9.80
2023-01-19T02:57:36.938Z,8.75
2023-01-19T03:00:26.485Z,10.48
2023-01-19T03:03:10.756Z,10.55
2023-01-19T03:05:56.903Z,8.20
2023-01-19T03:08:38.920Z,11.15
2023-01-19T03:11:12.439Z,9.50
2023-01-19T03:13:48.828Z,10.93
2023-01-19T03:16:23.036Z,12.13
2023-01-19T03:18:56.741Z,10.10
2023-01-19T03:21:28.883Z,10.25
2023-01-19T03:24:02.996Z,10.05
2023-01-19T03:26:38.880Z,10.95
2023-01-19T03:29:11.888Z,9.52
2023-01-19T03:31:43.698Z,9.50
2023-01-19T03:34:16.290Z,9.98
2023-01-19T03:36:47.959Z,9.88
2023-01-19T03:39:23.496Z,10.70
2023-01-19T03:41:57.864Z,9.98
2023-01-19T03:44:29.269Z,10.98
2023-01-19T03:47:00.426Z,12.18
2023-01-19T03:49:31.757Z,10.48
2023-01-19T03:52:01.448Z,10.50
2023-01-19T03:54:30.764Z,9.55
2023-01-19T03:57:01.440Z,10.32
2023-01-19T03:59:30.661Z,11.35
2023-01-19T04:01:59.814Z,11.70
2023-01-19T04:04:29.033Z,10.55
2023-01-19T04:06:58.709Z,11.30
2023-01-19T04:09:27.899Z,10.52
2023-01-19T04:11:57.426Z,10.68
2023-01-19T04:14:28.043Z,11.07
2023-01-19T04:16:57.239Z,11.20
2023-01-19T04:19:26.533Z,12.38
2023-01-19T04:21:55.831Z,12.88
2023-01-19T04:24:25.015Z,11.82
2023-01-19T04:26:54.662Z,12.18
2023-01-19T04:29:24.633Z,12.30
2023-01-19T04:31:55.155Z,13.32
2023-01-19T04:34:24.381Z,10.60
2023-01-19T04:36:53.619Z,12.15
2023-01-19T04:39:23.161Z,12.15
2023-01-19T04:41:53.071Z,11.38
2023-01-19T04:44:22.250Z,11.25
2023-01-19T04:46:52.375Z,12.57
2023-01-19T04:49:23.025Z,12.50
2023-01-19T04:51:53.907Z,12.82
2023-01-19T04:54:23.441Z,11.20
2023-01-19T04:56:52.713Z,12.50
2023-01-19T04:59:21.859Z,12.70
2023-01-19T05:01:51.290Z,11.73
2023-01-19T05:04:22.525Z,13.90
2023-01-19T05:06:52.035Z,14.20
2023-01-19T05:09:21.214Z,12.60
2023-01-19T05:11:50.417Z,12.88
2023-01-19T05:14:19.621Z,10.82
2023-01-19T05:16:48.817Z,12.73
2023-01-19T05:19:17.971Z,12.70
2023-01-19T05:21:48.669Z,12.30
2023-01-19T05:24:18.487Z,12.73
2023-01-19T05:26:47.690Z,12.68
2023-01-19T05:29:22.192Z,13.98
2023-01-19T05:31:56.863Z,14.52
2023-01-19T05:34:29.599Z,13.45
2023-01-19T05:37:08.628Z,13.70
2023-01-19T05:39:41.785Z,14.00
2023-01-19T05:42:11.905Z,12.02
2023-01-19T05:44:41.019Z,14.48
2023-01-19T05:47:10.264Z,13.13
2023-01-19T05:49:39.455Z,11.00
2023-01-19T05:52:10.017Z,11.07
2023-01-19T05:54:40.549Z,12.38
2023-01-19T05:57:10.849Z,12.70
2023-01-19T05:59:39.957Z,11.55
2023-01-19T06:02:09.080Z,11.90
2023-01-19T06:04:38.222Z,14.10
2023-01-19T06:07:08.864Z,9.60
2023-01-19T06:09:38.054Z,11.50
2023-01-19T06:12:08.209Z,11.52
2023-01-19T06:14:38.197Z,12.63
2023-01-19T06:17:07.865Z,12.45
2023-01-19T06:19:36.981Z,12.25
2023-01-19T06:22:06.202Z,12.10
2023-01-19T06:24:36.794Z,13.65
2023-01-19T06:27:06.764Z,11.40
2023-01-19T06:29:35.927Z,10.90
2023-01-19T06:32:05.226Z,12.45
2023-01-19T06:34:34.401Z,12.63
2023-01-19T06:37:04.050Z,12.18
2023-01-19T06:39:33.291Z,13.07
2023-01-19T06:42:03.888Z,11.23
2023-01-19T06:44:33.088Z,10.98
2023-01-19T06:47:15.251Z,12.93
2023-01-19T06:49:45.261Z,12.35
2023-01-19T06:52:16.148Z,11.70
2023-01-19T06:54:45.591Z,12.75
2023-01-19T06:57:16.489Z,12.68
2023-01-19T06:59:46.682Z,12.10
2023-01-19T07:02:27.864Z,10.82
2023-01-19T07:04:58.206Z,10.52
2023-01-19T07:07:27.913Z,13.00
2023-01-19T07:09:56.964Z,14.25
2023-01-19T07:12:27.601Z,12.02
2023-01-19T07:14:56.832Z,12.23
2023-01-19T07:17:26.116Z,13.77
2023-01-19T07:19:55.359Z,12.95
2023-01-19T07:22:24.571Z,10.82
2023-01-19T07:24:53.576Z,12.55
2023-01-19T07:27:22.780Z,11.93
2023-01-19T07:29:53.356Z,12.00
2023-01-19T07:32:22.757Z,11.48
2023-01-19T07:34:51.955Z,12.70
2023-01-19T07:37:21.257Z,11.40
2023-01-19T07:39:50.441Z,10.95
2023-01-19T07:42:23.273Z,10.48
2023-01-19T07:44:54.016Z,14.57
2023-01-19T07:47:23.311Z,13.52
2023-01-19T07:49:52.817Z,11.95
2023-01-19T07:52:23.058Z,12.00
2023-01-19T07:54:52.247Z,12.40
2023-01-19T07:57:21.658Z,11.38
2023-01-19T07:59:52.215Z,11.70
2023-01-19T08:02:21.515Z,11.10
2023-01-19T08:04:50.841Z,10.88
2023-01-19T08:07:20.348Z,9.60
2023-01-19T08:09:49.523Z,9.80
2023-01-19T08:12:19.017Z,11.27
2023-01-19T08:14:48.230Z,8.52
2023-01-19T08:17:19.625Z,9.52
2023-01-19T08:19:48.798Z,8.85
2023-01-19T08:22:18.177Z,9.02
2023-01-19T08:24:49.557Z,9.43
2023-01-19T08:27:19.846Z,9.70
2023-01-19T08:29:49.033Z,9.48
2023-01-19T08:32:19.809Z,8.80
2023-01-19T08:34:49.033Z,8.60
2023-01-19T08:37:18.213Z,8.88
2023-01-19T08:39:47.262Z,9.75
2023-01-19T08:42:16.452Z,9.10
2023-01-19T08:44:57.274Z,7.55
2023-01-19T08:47:28.506Z,8.95
2023-01-19T08:49:57.832Z,9.15
2023-01-19T08:52:27.020Z,8.60
2023-01-19T08:54:56.183Z,8.48
2023-01-19T08:57:25.382Z,8.52
2023-01-19T08:59:54.595Z,9.57
2023-01-19T09:02:23.834Z,7.63
2023-01-19T09:04:54.420Z,7.68
2023-01-19T09:07:23.510Z,10.02
2023-01-19T09:09:52.721Z,9.20
2023-01-19T09:12:21.933Z,7.10
2023-01-19T09:14:51.111Z,10.55
2023-01-19T09:17:20.303Z,7.95
2023-01-19T09:19:49.607Z,8.75
2023-01-19T09:22:22.515Z,7.40
2023-01-19T09:24:51.715Z,9.45
2023-01-19T09:27:21.191Z,7.28
2023-01-19T09:29:52.777Z,9.15
2023-01-19T09:32:23.070Z,8.82
2023-01-19T09:34:54.046Z,7.70
2023-01-19T09:37:24.620Z,7.72
2023-01-19T09:39:53.777Z,8.70
2023-01-19T09:42:31.429Z,8.85
2023-01-19T09:45:01.811Z,9.10
2023-01-19T09:47:34.447Z,7.45
2023-01-19T09:50:07.731Z,7.43
2023-01-19T09:52:49.182Z,7.38
2023-01-19T09:55:24.183Z,7.45
2023-01-19T09:57:53.597Z,7.50
2023-01-19T10:00:24.437Z,7.68
2023-01-19T10:02:59.365Z,7.43
2023-01-19T10:05:33.195Z,7.93
2023-01-19T10:08:16.409Z,8.63
2023-01-19T10:10:53.046Z,8.63
2023-01-19T10:13:34.300Z,7.63
2023-01-19T10:16:14.450Z,6.80
2023-01-19T10:18:48.493Z,6.60
2023-01-19T10:21:21.991Z,8.03
2023-01-19T10:23:57.041Z,7.15
2023-01-19T10:26:28.459Z,7.43
2023-01-19T10:29:06.688Z,8.00
2023-01-19T10:31:39.389Z,8.45
2023-01-19T10:34:08.606Z,7.55
2023-01-19T10:36:41.129Z,7.47
2023-01-19T10:39:16.021Z,7.68
2023-01-19T10:41:50.104Z,7.22
2023-01-19T10:44:27.088Z,6.65
2023-01-19T10:46:58.604Z,7.95
2023-01-19T10:49:31.437Z,8.77
2023-01-19T10:52:01.831Z,8.77
2023-01-19T10:54:36.364Z,6.60
2023-01-19T10:57:09.103Z,7.45
2023-01-19T10:59:47.903Z,7.45
2023-01-19T11:02:22.886Z,7.32
2023-01-19T11:04:54.065Z,7.80
2023-01-19T11:07:25.368Z,8.65
2023-01-19T11:10:22.165Z,7.97
2023-01-19T11:13:03.210Z,8.02
2023-01-19T11:15:36.077Z,8.00
2023-01-19T11:18:07.172Z,7.78
2023-01-19T11:20:49.717Z,7.63
2023-01-19T11:23:26.551Z,7.57
2023-01-19T11:26:01.398Z,7.95
2023-01-19T11:28:34.415Z,8.10
2023-01-19T11:31:17.505Z,7.80
2023-01-19T11:33:52.300Z,6.97
2023-01-19T11:36:23.527Z,7.75
2023-01-19T11:38:54.855Z,7.60
2023-01-19T11:41:28.299Z,8.82
2023-01-19T11:44:00.004Z,7.45
2023-01-19T11:46:35.274Z,8.57
2023-01-19T11:49:06.869Z,8.52
2023-01-19T11:51:45.157Z,7.85
2023-01-19T11:54:23.865Z,7.35
2023-01-19T11:56:57.040Z,6.93
2023-01-19T12:00:16.931Z,7.30
2023-01-19T12:02:50.074Z,7.57
2023-01-19T12:05:27.969Z,8.60
2023-01-19T12:07:59.501Z,7.75
2023-01-19T12:10:32.053Z,8.15
2023-01-19T12:13:03.436Z,8.68
2023-01-19T12:15:37.239Z,7.32
2023-01-19T12:18:09.313Z,7.88
2023-01-19T12:20:41.191Z,7.45
2023-01-19T12:23:23.147Z,7.35
2023-01-19T12:26:07.830Z,8.50
2023-01-19T12:28:42.787Z,7.50
2023-01-19T12:31:15.650Z,8.65
2023-01-19T12:33:45.010Z,7.65
2023-01-19T12:36:38.727Z,7.60
2023-01-19T12:39:15.505Z,8.00
2023-01-19T12:41:46.026Z,7.47
2023-01-19T12:44:25.269Z,7.88
2023-01-19T12:46:57.591Z,7.22
2023-01-19T12:49:30.532Z,8.48
2023-01-19T12:52:29.286Z,7.72
2023-01-19T12:55:06.743Z,6.72
2023-01-19T12:57:39.421Z,8.57
2023-01-19T13:00:30.671Z,7.97
2023-01-19T13:03:01.585Z,8.02
2023-01-19T13:06:00.885Z,9.60
2023-01-19T13:08:57.586Z,7.28
2023-01-19T13:11:30.281Z,6.80
2023-01-19T13:14:36.548Z,8.65
2023-01-19T13:17:31.825Z,7.22
2023-01-19T13:20:27.404Z,8.38
2023-01-19T13:23:22.042Z,7.55
2023-01-19T13:26:02.585Z,7.80
2023-01-19T13:29:00.357Z,8.02
2023-01-19T13:31:36.627Z,7.20
2023-01-19T13:34:15.072Z,7.95
2023-01-19T13:36:47.011Z,8.32
2023-01-19T13:39:20.293Z,7.55
2023-01-19T13:41:50.646Z,8.02
2023-01-19T13:44:23.885Z,8.85
2023-01-19T13:46:54.092Z,9.48
2023-01-19T13:49:30.719Z,9.85
2023-01-19T13:52:08.326Z,9.00
2023-01-19T13:54:37.595Z,9.02
2023-01-19T13:57:06.952Z,9.43
2023-01-19T13:59:36.166Z,8.95
2023-01-19T14:02:14.040Z,10.50
2023-01-19T14:04:44.638Z,10.02
2023-01-19T14:07:26.475Z,10.18
2023-01-19T14:10:06.504Z,10.02
2023-01-19T14:13:01.196Z,9.88
2023-01-19T14:15:31.067Z,10.32
2023-01-19T14:18:27.343Z,10.18
2023-01-19T14:21:09.268Z,11.40
2023-01-19T14:23:44.171Z,10.30
2023-01-19T14:26:43.102Z,10.63
2023-01-19T14:29:24.027Z,11.77
2023-01-19T14:32:05.430Z,9.23
2023-01-19T14:34:36.694Z,10.30
2023-01-19T14:37:16.443Z,9.85
2023-01-19T14:39:50.671Z,9.88
2023-01-19T14:42:25.413Z,11.38
2023-01-19T14:44:57.161Z,11.43
2023-01-19T14:47:37.094Z,10.80
2023-01-19T14:50:18.895Z,9.73
2023-01-19T14:52:55.836Z,9.70
2023-01-19T14:55:30.204Z,11.70
2023-01-19T14:57:59.471Z,10.90
2023-01-19T15:00:29.142Z,12.40
2023-01-19T15:02:58.625Z,12.60
2023-01-19T15:05:31.376Z,10.55
2023-01-19T15:08:04.522Z,10.98
2023-01-19T15:10:34.212Z,10.85
2023-01-19T15:13:05.004Z,11.80
2023-01-19T15:15:35.830Z,10.80
2023-01-19T15:18:08.292Z,11.10
2023-01-19T15:20:38.499Z,10.82
2023-01-19T15:23:11.180Z,11.32
2023-01-19T15:25:41.804Z,11.88
2023-01-19T15:28:12.938Z,13.02
2023-01-19T15:30:42.377Z,12.07
2023-01-19T15:33:18.571Z,11.35
2023-01-19T15:35:47.808Z,10.05
2023-01-19T15:38:18.409Z,11.45
2023-01-19T15:40:51.382Z,11.32
2023-01-19T15:43:21.741Z,11.85
2023-01-19T15:45:55.932Z,12.25
2023-01-19T15:48:25.849Z,11.40
2023-01-19T15:50:55.179Z,10.18
2023-01-19T15:53:27.400Z,12.13
2023-01-19T15:55:57.001Z,10.95
2023-01-19T15:58:26.747Z,12.38
2023-01-19T16:00:57.643Z,13.10
2023-01-19T16:03:27.186Z,10.95
2023-01-19T16:05:56.374Z,11.38
2023-01-19T16:08:27.017Z,10.15
2023-01-19T16:10:56.280Z,11.68
2023-01-19T16:13:25.446Z,11.25
2023-01-19T16:16:04.760Z,11.02
2023-01-19T16:18:34.119Z,10.75
2023-01-19T16:21:03.486Z,9.57
2023-01-19T16:23:34.112Z,11.30
2023-01-19T16:26:08.022Z,11.40
2023-01-19T16:28:38.649Z,11.38
2023-01-19T16:31:07.948Z,11.15
2023-01-19T16:33:37.440Z,11.35
2023-01-19T16:36:24.552Z,11.68
2023-01-19T16:38:55.502Z,11.70
2023-01-19T16:41:24.612Z,13.90
2023-01-19T16:43:54.686Z,12.57
2023-01-19T16:46:25.962Z,11.07
2023-01-19T16:48:55.543Z,11.55
2023-01-19T16:51:24.743Z,12.48
2023-01-19T16:53:55.475Z,11.57
2023-01-19T16:56:51.822Z,11.45
2023-01-19T16:59:21.224Z,11.25
2023-01-19T17:01:52.143Z,10.63
2023-01-19T17:04:22.734Z,10.68
2023-01-19T17:06:52.179Z,10.65
2023-01-19T17:09:22.925Z,10.80
2023-01-19T17:11:52.195Z,9.95
2023-01-19T17:14:22.306Z,12.82
2023-01-19T17:16:51.897Z,12.00
2023-01-19T17:19:22.261Z,9.05
2023-01-19T17:21:52.243Z,12.63
2023-01-19T17:24:23.239Z,12.43
2023-01-19T17:26:52.480Z,12.48
2023-01-19T17:29:21.766Z,10.55
2023-01-19T17:31:52.605Z,10.65
2023-01-19T17:34:21.876Z,11.30
2023-01-19T17:36:52.655Z,16.33
2023-01-19T17:39:23.340Z,10.48
2023-01-19T17:41:52.748Z,11.13
2023-01-19T17:44:22.278Z,11.98
2023-01-19T17:46:51.615Z,10.73
2023-01-19T17:49:20.837Z,12.32
2023-01-19T17:51:54.505Z,11.88
2023-01-19T17:54:25.408Z,10.02
2023-01-19T17:57:22.839Z,12.35
2023-01-19T17:59:52.215Z,9.20
2023-01-19T18:02:24.602Z,11.20
2023-01-19T18:04:54.232Z,12.27
2023-01-19T18:07:23.589Z,9.75
2023-01-19T18:09:56.731Z,12.90
2023-01-19T18:12:26.287Z,11.27
2023-01-19T18:14:55.517Z,11.70
2023-01-19T18:17:24.827Z,10.38
2023-01-19T18:19:54.956Z,9.95
2023-01-19T18:22:24.191Z,10.55
2023-01-19T18:24:54.996Z,11.25
2023-01-19T18:27:24.243Z,11.93
2023-01-19T18:29:53.601Z,11.73
2023-01-19T18:32:25.812Z,11.02
2023-01-19T18:34:57.800Z,10.63
2023-01-19T18:37:27.198Z,9.23
2023-01-19T18:40:02.254Z,11.20
2023-01-19T18:42:31.557Z,11.25
2023-01-19T18:45:00.720Z,10.40
2023-01-19T18:47:35.596Z,7.80
2023-01-19T18:50:04.993Z,8.80
2023-01-19T18:52:34.278Z,10.38
2023-01-19T18:55:05.191Z,11.32
2023-01-19T18:57:36.603Z,11.25
2023-01-19T19:00:07.210Z,11.63
2023-01-19T19:02:36.377Z,11.30
2023-01-19T19:05:06.092Z,9.57
2023-01-19T19:07:36.816Z,10.50
2023-01-19T19:10:08.846Z,10.95
2023-01-19T19:12:38.123Z,8.77
2023-01-19T19:15:08.831Z,10.65
2023-01-19T19:17:38.163Z,10.75
2023-01-19T19:20:08.091Z,10.30
2023-01-19T19:22:37.431Z,11.25
2023-01-19T19:25:08.804Z,9.90
2023-01-19T19:27:38.836Z,11.48
2023-01-19T19:30:09.229Z,12.10
2023-01-19T19:32:38.480Z,11.30
2023-01-19T19:35:08.265Z,10.88
2023-01-19T19:37:37.650Z,10.77
2023-01-19T19:40:13.506Z,9.90
2023-01-19T19:42:42.902Z,11.02
2023-01-19T19:45:13.517Z,8.70
2023-01-19T19:47:44.057Z,10.65
2023-01-19T19:50:14.427Z,10.98
2023-01-19T19:52:44.216Z,10.27
2023-01-19T19:55:14.910Z,10.70
2023-01-19T19:57:44.182Z,10.88
2023-01-19T20:00:14.207Z,11.32
2023-01-19T20:02:44.197Z,9.98
2023-01-19T20:05:13.791Z,9.35
2023-01-19T20:07:48.291Z,10.48
2023-01-19T20:10:19.509Z,10.57
2023-01-19T20:12:48.782Z,11.27
2023-01-19T20:15:18.110Z,10.23
2023-01-19T20:17:47.525Z,9.95
2023-01-19T20:20:16.996Z,10.07
2023-01-19T20:22:48.039Z,8.93
2023-01-19T20:25:18.761Z,8.85
2023-01-19T20:27:48.670Z,9.13
2023-01-19T20:30:18.268Z,11.07
2023-01-19T20:32:47.693Z,10.32
2023-01-19T20:35:16.888Z,9.45
2023-01-19T20:37:46.044Z,10.05
2023-01-19T20:40:15.691Z,11.98
2023-01-19T20:42:46.258Z,12.63
2023-01-19T20:45:16.613Z,10.05
2023-01-19T20:47:45.933Z,11.30
2023-01-19T20:50:15.080Z,12.60
2023-01-19T20:52:44.367Z,11.73
2023-01-19T20:55:14.266Z,10.82
2023-01-19T20:57:43.660Z,10.10
2023-01-19T21:00:15.530Z,10.75
2023-01-19T21:02:44.808Z,10.38
2023-01-19T21:05:14.365Z,10.30
2023-01-19T21:07:43.769Z,10.95
2023-01-19T21:10:13.140Z,11.82
2023-01-19T21:12:42.736Z,11.23
2023-01-19T21:15:14.211Z,11.07
2023-01-19T21:17:45.203Z,11.98
2023-01-19T21:20:14.887Z,11.95
2023-01-19T21:22:44.458Z,11.23
2023-01-19T21:25:14.364Z,10.95
2023-01-19T21:27:44.361Z,12.70
2023-01-19T21:30:15.772Z,9.75
2023-01-19T21:32:45.389Z,10.93
2023-01-19T21:35:14.915Z,11.00
2023-01-19T21:37:44.521Z,11.00
2023-01-19T21:40:15.467Z,10.73
2023-01-19T21:42:45.386Z,11.38
2023-01-19T21:45:16.683Z,11.00
2023-01-19T21:47:48.205Z,10.60
2023-01-19T21:50:19.599Z,11.25
2023-01-19T21:52:49.906Z,11.18
2023-01-19T21:55:19.477Z,11.50
2023-01-19T21:57:48.654Z,11.20
2023-01-19T22:00:20.941Z,11.23
2023-01-19T22:03:03.072Z,11.32
2023-01-19T22:05:36.920Z,10.70
2023-01-19T22:08:07.326Z,9.85
2023-01-19T22:10:38.428Z,10.70
2023-01-19T22:13:08.082Z,11.15
2023-01-19T22:16:10.538Z,10.70
2023-01-19T22:18:40.745Z,9.82
2023-01-19T22:21:11.056Z,10.43
2023-01-19T22:23:40.446Z,9.52
2023-01-19T22:26:11.350Z,11.52
2023-01-19T22:28:40.721Z,10.50
2023-01-19T22:31:13.064Z,10.68
2023-01-19T22:33:43.269Z,12.60
2023-01-19T22:36:15.585Z,11.60
2023-01-19T22:38:45.642Z,12.18
2023-01-19T22:42:05.666Z,11.52
2023-01-19T22:44:36.242Z,12.30
2023-01-19T22:47:07.343Z,11.02
2023-01-19T22:50:07.073Z,12.45
2023-01-19T22:52:36.433Z,12.18
2023-01-19T22:55:06.047Z,11.00
2023-01-19T22:57:36.841Z,10.07
2023-01-19T23:00:08.730Z,11.63
2023-01-19T23:03:08.425Z,11.07
2023-01-19T23:05:37.977Z,12.35
2023-01-19T23:08:07.493Z,10.98
2023-01-19T23:10:39.410Z,11.50
2023-01-19T23:13:08.658Z,12.07
2023-01-19T23:15:38.233Z,11.65
2023-01-19T23:18:08.895Z,11.95
2023-01-19T23:20:38.103Z,10.25
2023-01-19T23:23:07.534Z,12.15
2023-01-19T23:25:40.607Z,12.35
2023-01-19T23:28:09.810Z,11.07
2023-01-19T23:30:39.214Z,12.95
2023-01-19T23:33:09.991Z,11.07
2023-01-19T23:35:39.154Z,10.45
2023-01-19T23:38:08.311Z,12.25
2023-01-19T23:40:38.515Z,11.95
2023-01-19T23:43:07.752Z,10.13
2023-01-19T23:45:37.144Z,12.13
2023-01-19T23:48:06.719Z,11.85
2023-01-19T23:50:40.255Z,10.52
2023-01-19T23:53:09.572Z,12.55
2023-01-19T23:55:38.778Z,10.75
2023-01-19T23:58:08.015Z,11.65
